sensor_id;sensor_type;location;lat;lon;timestamp;temperature;humidity
19044;DHT22;9654;52.302;8.120;2023-04-15T00:01:09;6.20;99.90
19044;DHT22;9654;52.302;8.120;2023-04-15T00:03:37;6.10;99.90
19044;DHT22;9654;52.302;8.120;2023-04-15T00:06:04;6.10;99.90
19044;DHT22;9654;52.302;8.120;2023-04-15T00:08:31;6.00;99.90
19044;DHT22;9654;52.302;8.120;2023-04-15T00:10:58;6.00;99.90
19044;DHT22;9654;52.302;8.120;2023-04-15T00:13:27;6.00;99.90
19044;DHT22;9654;52.302;8.120;2023-04-15T00:15:54;6.00;99.90
19044;DHT22;9654;52.302;8.120;2023-04-15T00:18:20;6.00;99.90
19044;DHT22;9654;52.302;8.120;2023-04-15T00:20:49;6.00;99.90
19044;DHT22;9654;52.302;8.120;2023-04-15T00:23:15;6.00;99.90
19044;DHT22;9654;52.302;8.120;2023-04-15T00:25:42;5.90;99.90
19044;DHT22;9654;52.302;8.120;2023-04-15T00:28:09;5.90;99.90
19044;DHT22;9654;52.302;8.120;2023-04-15T00:30:36;5.90;99.90
19044;DHT22;9654;52.302;8.120;2023-04-15T00:33:03;5.90;99.90
19044;DHT22;9654;52.302;8.120;2023-04-15T00:35:30;5.80;99.90
19044;DHT22;9654;52.302;8.120;2023-04-15T00:37:58;5.80;99.90
19044;DHT22;9654;52.302;8.120;2023-04-15T00:40:25;5.70;99.90
19044;DHT22;9654;52.302;8.120;2023-04-15T00:42:52;5.50;99.90
19044;DHT22;9654;52.302;8.120;2023-04-15T00:45:19;5.60;99.90
19044;DHT22;9654;52.302;8.120;2023-04-15T00:47:46;5.50;99.90
19044;DHT22;9654;52.302;8.120;2023-04-15T00:50:13;5.50;99.90
19044;DHT22;9654;52.302;8.120;2023-04-15T00:52:40;5.50;99.90
19044;DHT22;9654;52.302;8.120;2023-04-15T00:55:09;5.40;99.90
19044;DHT22;9654;52.302;8.120;2023-04-15T00:57:37;5.50;99.90
19044;DHT22;9654;52.302;8.120;2023-04-15T01:00:05;5.40;99.90
19044;DHT22;9654;52.302;8.120;2023-04-15T01:02:34;5.40;99.90
19044;DHT22;9654;52.302;8.120;2023-04-15T01:05:03;5.40;99.90
19044;DHT22;9654;52.302;8.120;2023-04-15T01:07:31;5.50;99.90
19044;DHT22;9654;52.302;8.120;2023-04-15T01:09:57;5.40;99.90
19044;DHT22;9654;52.302;8.120;2023-04-15T01:12:26;5.40;99.90
19044;DHT22;9654;52.302;8.120;2023-04-15T01:14:53;5.40;99.90
19044;DHT22;9654;52.302;8.120;2023-04-15T01:17:20;5.40;99.90
19044;DHT22;9654;52.302;8.120;2023-04-15T01:19:47;5.40;99.90
19044;DHT22;9654;52.302;8.120;2023-04-15T01:22:14;5.40;99.90
19044;DHT22;9654;52.302;8.120;2023-04-15T01:24:44;5.40;99.90
19044;DHT22;9654;52.302;8.120;2023-04-15T01:27:15;5.30;99.90
19044;DHT22;9654;52.302;8.120;2023-04-15T01:29:41;5.30;99.90
19044;DHT22;9654;52.302;8.120;2023-04-15T01:32:08;5.40;99.90
19044;DHT22;9654;52.302;8.120;2023-04-15T01:34:35;5.30;99.90
19044;DHT22;9654;52.302;8.120;2023-04-15T01:37:02;5.30;99.90
19044;DHT22;9654;52.302;8.120;2023-04-15T01:39:29;5.30;99.90
19044;DHT22;9654;52.302;8.120;2023-04-15T01:41:55;5.30;99.90
19044;DHT22;9654;52.302;8.120;2023-04-15T01:44:24;5.30;99.90
19044;DHT22;9654;52.302;8.120;2023-04-15T01:46:50;5.20;99.90
19044;DHT22;9654;52.302;8.120;2023-04-15T01:49:17;5.20;99.90
19044;DHT22;9654;52.302;8.120;2023-04-15T01:51:44;5.20;99.90
19044;DHT22;9654;52.302;8.120;2023-04-15T01:54:11;5.20;99.90
19044;DHT22;9654;52.302;8.120;2023-04-15T01:56:37;5.10;99.90
19044;DHT22;9654;52.302;8.120;2023-04-15T01:59:04;5.10;99.90
19044;DHT22;9654;52.302;8.120;2023-04-15T02:01:32;5.10;99.90
19044;DHT22;9654;52.302;8.120;2023-04-15T02:03:59;5.00;99.90
19044;DHT22;9654;52.302;8.120;2023-04-15T02:06:26;4.90;99.90
19044;DHT22;9654;52.302;8.120;2023-04-15T02:08:53;4.80;99.90
19044;DHT22;9654;52.302;8.120;2023-04-15T02:11:20;4.70;99.90
19044;DHT22;9654;52.302;8.120;2023-04-15T02:13:47;4.70;99.90
19044;DHT22;9654;52.302;8.120;2023-04-15T02:16:15;4.60;99.90
19044;DHT22;9654;52.302;8.120;2023-04-15T02:18:45;4.60;99.90
19044;DHT22;9654;52.302;8.120;2023-04-15T02:21:12;4.50;99.90
19044;DHT22;9654;52.302;8.120;2023-04-15T02:23:38;4.50;99.90
19044;DHT22;9654;52.302;8.120;2023-04-15T02:26:05;4.40;99.90
19044;DHT22;9654;52.302;8.120;2023-04-15T02:28:32;4.40;99.90
19044;DHT22;9654;52.302;8.120;2023-04-15T02:30:59;4.30;99.90
19044;DHT22;9654;52.302;8.120;2023-04-15T02:33:26;4.10;99.90
19044;DHT22;9654;52.302;8.120;2023-04-15T02:35:54;4.10;99.90
19044;DHT22;9654;52.302;8.120;2023-04-15T02:38:21;4.00;99.90
19044;DHT22;9654;52.302;8.120;2023-04-15T02:40:48;3.90;99.90
19044;DHT22;9654;52.302;8.120;2023-04-15T02:43:15;3.80;99.90
19044;DHT22;9654;52.302;8.120;2023-04-15T02:45:42;3.70;99.90
19044;DHT22;9654;52.302;8.120;2023-04-15T02:48:09;3.70;99.90
19044;DHT22;9654;52.302;8.120;2023-04-15T02:50:36;3.70;99.90
19044;DHT22;9654;52.302;8.120;2023-04-15T02:53:05;3.80;99.90
19044;DHT22;9654;52.302;8.120;2023-04-15T02:55:32;3.80;99.90
19044;DHT22;9654;52.302;8.120;2023-04-15T02:57:58;3.80;99.90
19044;DHT22;9654;52.302;8.120;2023-04-15T03:00:25;3.80;99.90
19044;DHT22;9654;52.302;8.120;2023-04-15T03:02:57;3.80;99.90
19044;DHT22;9654;52.302;8.120;2023-04-15T03:05:24;3.80;99.90
19044;DHT22;9654;52.302;8.120;2023-04-15T03:07:51;3.80;99.90
19044;DHT22;9654;52.302;8.120;2023-04-15T03:10:20;3.80;99.90
19044;DHT22;9654;52.302;8.120;2023-04-15T03:12:47;3.80;99.90
19044;DHT22;9654;52.302;8.120;2023-04-15T03:15:14;3.80;99.90
19044;DHT22;9654;52.302;8.120;2023-04-15T03:17:41;3.80;99.90
19044;DHT22;9654;52.302;8.120;2023-04-15T03:20:08;3.90;99.90
19044;DHT22;9654;52.302;8.120;2023-04-15T03:22:35;3.90;99.90
19044;DHT22;9654;52.302;8.120;2023-04-15T03:25:02;4.00;99.90
19044;DHT22;9654;52.302;8.120;2023-04-15T03:27:30;4.00;99.90
19044;DHT22;9654;52.302;8.120;2023-04-15T03:29:57;4.00;99.90
19044;DHT22;9654;52.302;8.120;2023-04-15T03:32:24;4.00;99.90
19044;DHT22;9654;52.302;8.120;2023-04-15T03:34:51;3.90;99.90
19044;DHT22;9654;52.302;8.120;2023-04-15T03:37:18;3.80;99.90
19044;DHT22;9654;52.302;8.120;2023-04-15T03:39:45;3.80;99.90
19044;DHT22;9654;52.302;8.120;2023-04-15T03:42:12;3.80;99.90
19044;DHT22;9654;52.302;8.120;2023-04-15T03:44:40;3.80;99.90
19044;DHT22;9654;52.302;8.120;2023-04-15T03:47:06;3.70;99.90
19044;DHT22;9654;52.302;8.120;2023-04-15T03:49:33;3.60;99.90
19044;DHT22;9654;52.302;8.120;2023-04-15T03:52:00;3.50;99.90
19044;DHT22;9654;52.302;8.120;2023-04-15T03:54:27;3.50;99.90
19044;DHT22;9654;52.302;8.120;2023-04-15T03:56:54;3.50;99.90
19044;DHT22;9654;52.302;8.120;2023-04-15T03:59:21;3.50;99.90
19044;DHT22;9654;52.302;8.120;2023-04-15T04:01:49;3.60;99.90
19044;DHT22;9654;52.302;8.120;2023-04-15T04:04:16;3.60;99.90
19044;DHT22;9654;52.302;8.120;2023-04-15T04:06:43;3.60;99.90
19044;DHT22;9654;52.302;8.120;2023-04-15T04:09:10;3.60;99.90
19044;DHT22;9654;52.302;8.120;2023-04-15T04:11:36;3.60;99.90
19044;DHT22;9654;52.302;8.120;2023-04-15T04:14:03;3.60;99.90
19044;DHT22;9654;52.302;8.120;2023-04-15T04:16:30;3.60;99.90
19044;DHT22;9654;52.302;8.120;2023-04-15T04:18:58;3.50;99.90
19044;DHT22;9654;52.302;8.120;2023-04-15T04:21:25;3.50;99.90
19044;DHT22;9654;52.302;8.120;2023-04-15T04:23:52;3.50;99.90
19044;DHT22;9654;52.302;8.120;2023-04-15T04:26:19;3.50;99.90
19044;DHT22;9654;52.302;8.120;2023-04-15T04:28:46;3.40;99.90
19044;DHT22;9654;52.302;8.120;2023-04-15T04:31:12;3.40;99.90
19044;DHT22;9654;52.302;8.120;2023-04-15T04:33:39;3.30;99.90
19044;DHT22;9654;52.302;8.120;2023-04-15T04:36:08;3.30;99.90
19044;DHT22;9654;52.302;8.120;2023-04-15T04:38:34;3.20;99.90
19044;DHT22;9654;52.302;8.120;2023-04-15T04:41:01;3.20;99.90
19044;DHT22;9654;52.302;8.120;2023-04-15T04:43:28;3.20;99.90
19044;DHT22;9654;52.302;8.120;2023-04-15T04:45:55;3.20;99.90
19044;DHT22;9654;52.302;8.120;2023-04-15T04:48:22;3.20;99.90
19044;DHT22;9654;52.302;8.120;2023-04-15T04:50:49;3.30;99.90
19044;DHT22;9654;52.302;8.120;2023-04-15T04:53:17;3.30;99.90
19044;DHT22;9654;52.302;8.120;2023-04-15T04:55:44;3.40;99.90
19044;DHT22;9654;52.302;8.120;2023-04-15T04:58:11;3.40;99.90
19044;DHT22;9654;52.302;8.120;2023-04-15T05:00:39;3.40;99.90
19044;DHT22;9654;52.302;8.120;2023-04-15T05:03:06;3.60;99.90
19044;DHT22;9654;52.302;8.120;2023-04-15T05:05:33;3.80;99.90
19044;DHT22;9654;52.302;8.120;2023-04-15T05:08:01;4.00;99.90
19044;DHT22;9654;52.302;8.120;2023-04-15T05:10:29;4.20;99.90
19044;DHT22;9654;52.302;8.120;2023-04-15T05:12:56;4.40;99.90
19044;DHT22;9654;52.302;8.120;2023-04-15T05:15:23;4.50;99.90
19044;DHT22;9654;52.302;8.120;2023-04-15T05:17:50;4.60;99.90
19044;DHT22;9654;52.302;8.120;2023-04-15T05:20:17;4.70;99.90
19044;DHT22;9654;52.302;8.120;2023-04-15T05:22:44;4.80;99.90
19044;DHT22;9654;52.302;8.120;2023-04-15T05:25:11;4.90;99.90
19044;DHT22;9654;52.302;8.120;2023-04-15T05:27:39;5.00;99.90
19044;DHT22;9654;52.302;8.120;2023-04-15T05:30:07;5.00;99.90
19044;DHT22;9654;52.302;8.120;2023-04-15T05:32:34;5.20;99.90
19044;DHT22;9654;52.302;8.120;2023-04-15T05:35:01;5.20;99.90
19044;DHT22;9654;52.302;8.120;2023-04-15T05:37:28;5.30;99.90
19044;DHT22;9654;52.302;8.120;2023-04-15T05:39:54;5.30;99.90
19044;DHT22;9654;52.302;8.120;2023-04-15T05:42:21;5.30;99.90
19044;DHT22;9654;52.302;8.120;2023-04-15T05:44:50;5.30;99.90
19044;DHT22;9654;52.302;8.120;2023-04-15T05:47:16;5.40;99.90
19044;DHT22;9654;52.302;8.120;2023-04-15T05:49:43;5.40;99.90
19044;DHT22;9654;52.302;8.120;2023-04-15T05:52:10;5.40;99.90
19044;DHT22;9654;52.302;8.120;2023-04-15T05:54:37;5.50;99.90
19044;DHT22;9654;52.302;8.120;2023-04-15T05:57:03;5.50;99.90
19044;DHT22;9654;52.302;8.120;2023-04-15T05:59:30;5.50;99.90
19044;DHT22;9654;52.302;8.120;2023-04-15T06:01:58;5.60;99.90
19044;DHT22;9654;52.302;8.120;2023-04-15T06:04:25;5.60;99.90
19044;DHT22;9654;52.302;8.120;2023-04-15T06:06:52;5.70;99.90
19044;DHT22;9654;52.302;8.120;2023-04-15T06:09:18;5.70;99.90
19044;DHT22;9654;52.302;8.120;2023-04-15T06:11:45;5.80;99.90
19044;DHT22;9654;52.302;8.120;2023-04-15T06:14:12;5.80;99.90
19044;DHT22;9654;52.302;8.120;2023-04-15T06:16:39;5.90;99.90
19044;DHT22;9654;52.302;8.120;2023-04-15T06:19:07;6.00;99.90
19044;DHT22;9654;52.302;8.120;2023-04-15T06:21:34;6.00;99.90
19044;DHT22;9654;52.302;8.120;2023-04-15T06:24:01;6.10;99.90
19044;DHT22;9654;52.302;8.120;2023-04-15T06:26:28;6.10;99.90
19044;DHT22;9654;52.302;8.120;2023-04-15T06:28:55;6.20;99.90
19044;DHT22;9654;52.302;8.120;2023-04-15T06:31:22;6.20;99.90
19044;DHT22;9654;52.302;8.120;2023-04-15T06:33:49;6.30;99.90
19044;DHT22;9654;52.302;8.120;2023-04-15T06:36:17;6.30;99.90
19044;DHT22;9654;52.302;8.120;2023-04-15T06:38:43;6.30;99.90
19044;DHT22;9654;52.302;8.120;2023-04-15T06:41:11;6.40;99.90
19044;DHT22;9654;52.302;8.120;2023-04-15T06:43:38;6.40;99.90
19044;DHT22;9654;52.302;8.120;2023-04-15T06:46:04;6.40;99.90
19044;DHT22;9654;52.302;8.120;2023-04-15T06:48:31;6.40;99.90
19044;DHT22;9654;52.302;8.120;2023-04-15T06:50:58;6.50;99.90
19044;DHT22;9654;52.302;8.120;2023-04-15T06:53:26;6.50;99.90
19044;DHT22;9654;52.302;8.120;2023-04-15T06:55:53;6.60;99.90
19044;DHT22;9654;52.302;8.120;2023-04-15T06:58:20;6.60;99.90
19044;DHT22;9654;52.302;8.120;2023-04-15T07:00:46;6.60;99.90
19044;DHT22;9654;52.302;8.120;2023-04-15T07:03:13;6.60;99.90
19044;DHT22;9654;52.302;8.120;2023-04-15T07:05:40;6.70;99.90
19044;DHT22;9654;52.302;8.120;2023-04-15T07:08:10;6.70;99.90
19044;DHT22;9654;52.302;8.120;2023-04-15T07:10:39;6.70;99.90
19044;DHT22;9654;52.302;8.120;2023-04-15T07:13:05;6.70;99.90
19044;DHT22;9654;52.302;8.120;2023-04-15T07:15:33;6.70;99.90
19044;DHT22;9654;52.302;8.120;2023-04-15T07:18:00;6.80;99.90
19044;DHT22;9654;52.302;8.120;2023-04-15T07:20:26;6.80;99.90
19044;DHT22;9654;52.302;8.120;2023-04-15T07:22:53;6.80;99.90
19044;DHT22;9654;52.302;8.120;2023-04-15T07:25:20;6.90;99.90
19044;DHT22;9654;52.302;8.120;2023-04-15T07:27:48;6.90;99.90
19044;DHT22;9654;52.302;8.120;2023-04-15T07:30:15;6.90;99.90
19044;DHT22;9654;52.302;8.120;2023-04-15T07:32:42;6.90;99.90
19044;DHT22;9654;52.302;8.120;2023-04-15T07:35:09;7.00;99.90
19044;DHT22;9654;52.302;8.120;2023-04-15T07:37:36;7.00;99.90
19044;DHT22;9654;52.302;8.120;2023-04-15T07:40:03;7.00;99.90
19044;DHT22;9654;52.302;8.120;2023-04-15T07:42:31;7.00;99.90
19044;DHT22;9654;52.302;8.120;2023-04-15T07:45:00;7.00;99.90
19044;DHT22;9654;52.302;8.120;2023-04-15T07:47:27;7.10;99.90
19044;DHT22;9654;52.302;8.120;2023-04-15T07:49:53;7.20;99.90
19044;DHT22;9654;52.302;8.120;2023-04-15T07:52:20;7.20;99.90
19044;DHT22;9654;52.302;8.120;2023-04-15T07:54:47;7.20;99.90
19044;DHT22;9654;52.302;8.120;2023-04-15T07:57:13;7.20;99.90
19044;DHT22;9654;52.302;8.120;2023-04-15T07:59:41;7.20;99.90
19044;DHT22;9654;52.302;8.120;2023-04-15T08:02:10;7.20;99.90
19044;DHT22;9654;52.302;8.120;2023-04-15T08:04:37;7.30;99.90
19044;DHT22;9654;52.302;8.120;2023-04-15T08:07:03;7.30;99.90
19044;DHT22;9654;52.302;8.120;2023-04-15T08:09:30;7.30;99.90
19044;DHT22;9654;52.302;8.120;2023-04-15T08:11:57;7.30;99.90
19044;DHT22;9654;52.302;8.120;2023-04-15T08:14:24;7.30;99.90
19044;DHT22;9654;52.302;8.120;2023-04-15T08:16:50;7.30;99.90
19044;DHT22;9654;52.302;8.120;2023-04-15T08:19:19;7.30;99.90
19044;DHT22;9654;52.302;8.120;2023-04-15T08:21:46;7.40;99.90
19044;DHT22;9654;52.302;8.120;2023-04-15T08:24:12;7.40;99.90
19044;DHT22;9654;52.302;8.120;2023-04-15T08:26:40;7.40;99.90
19044;DHT22;9654;52.302;8.120;2023-04-15T08:29:06;7.40;99.90
19044;DHT22;9654;52.302;8.120;2023-04-15T08:31:33;7.50;99.90
19044;DHT22;9654;52.302;8.120;2023-04-15T08:34:00;7.40;99.90
19044;DHT22;9654;52.302;8.120;2023-04-15T08:36:28;7.50;99.90
19044;DHT22;9654;52.302;8.120;2023-04-15T08:38:55;7.60;99.90
19044;DHT22;9654;52.302;8.120;2023-04-15T08:41:23;7.50;99.90
19044;DHT22;9654;52.302;8.120;2023-04-15T08:43:56;7.60;99.90
19044;DHT22;9654;52.302;8.120;2023-04-15T08:46:23;7.60;99.90
19044;DHT22;9654;52.302;8.120;2023-04-15T08:48:50;7.60;99.90
19044;DHT22;9654;52.302;8.120;2023-04-15T08:51:17;7.60;99.90
19044;DHT22;9654;52.302;8.120;2023-04-15T08:53:46;7.60;99.90
19044;DHT22;9654;52.302;8.120;2023-04-15T08:56:14;7.60;99.90
19044;DHT22;9654;52.302;8.120;2023-04-15T08:58:41;7.60;99.90
19044;DHT22;9654;52.302;8.120;2023-04-15T09:01:09;7.60;99.90
19044;DHT22;9654;52.302;8.120;2023-04-15T09:03:37;7.60;99.90
19044;DHT22;9654;52.302;8.120;2023-04-15T09:06:04;7.70;99.90
19044;DHT22;9654;52.302;8.120;2023-04-15T09:08:31;7.70;99.90
19044;DHT22;9654;52.302;8.120;2023-04-15T09:11:00;7.80;99.90
19044;DHT22;9654;52.302;8.120;2023-04-15T09:13:27;7.80;99.90
19044;DHT22;9654;52.302;8.120;2023-04-15T09:15:54;7.80;99.90
19044;DHT22;9654;52.302;8.120;2023-04-15T09:18:28;7.80;99.90
19044;DHT22;9654;52.302;8.120;2023-04-15T09:20:55;7.80;99.90
19044;DHT22;9654;52.302;8.120;2023-04-15T09:23:22;7.90;99.90
19044;DHT22;9654;52.302;8.120;2023-04-15T09:25:49;7.80;99.90
19044;DHT22;9654;52.302;8.120;2023-04-15T09:28:24;7.80;99.90
19044;DHT22;9654;52.302;8.120;2023-04-15T09:30:54;7.90;99.90
19044;DHT22;9654;52.302;8.120;2023-04-15T09:33:22;8.00;99.90
19044;DHT22;9654;52.302;8.120;2023-04-15T09:35:59;8.00;99.90
19044;DHT22;9654;52.302;8.120;2023-04-15T09:38:26;8.00;99.90
19044;DHT22;9654;52.302;8.120;2023-04-15T09:40:53;8.00;99.90
19044;DHT22;9654;52.302;8.120;2023-04-15T09:43:20;8.00;99.90
19044;DHT22;9654;52.302;8.120;2023-04-15T09:45:50;8.10;99.90
19044;DHT22;9654;52.302;8.120;2023-04-15T09:48:18;8.10;99.90
19044;DHT22;9654;52.302;8.120;2023-04-15T09:50:46;8.10;99.90
19044;DHT22;9654;52.302;8.120;2023-04-15T09:53:18;8.20;99.90
19044;DHT22;9654;52.302;8.120;2023-04-15T09:55:48;8.20;99.90
19044;DHT22;9654;52.302;8.120;2023-04-15T09:58:19;8.20;99.90
19044;DHT22;9654;52.302;8.120;2023-04-15T10:00:46;8.20;99.90
19044;DHT22;9654;52.302;8.120;2023-04-15T10:03:18;8.30;99.90
19044;DHT22;9654;52.302;8.120;2023-04-15T10:05:47;8.30;99.90
19044;DHT22;9654;52.302;8.120;2023-04-15T10:08:16;8.30;99.90
19044;DHT22;9654;52.302;8.120;2023-04-15T10:10:44;8.30;99.90
19044;DHT22;9654;52.302;8.120;2023-04-15T10:13:12;8.30;99.90
19044;DHT22;9654;52.302;8.120;2023-04-15T10:15:42;8.40;99.90
19044;DHT22;9654;52.302;8.120;2023-04-15T10:18:10;8.40;99.90
19044;DHT22;9654;52.302;8.120;2023-04-15T10:20:40;8.30;99.90
19044;DHT22;9654;52.302;8.120;2023-04-15T10:23:08;8.30;99.90
19044;DHT22;9654;52.302;8.120;2023-04-15T10:25:35;8.30;99.90
19044;DHT22;9654;52.302;8.120;2023-04-15T10:28:04;8.40;99.90
19044;DHT22;9654;52.302;8.120;2023-04-15T10:30:32;8.40;99.90
19044;DHT22;9654;52.302;8.120;2023-04-15T10:32:59;8.40;99.90
19044;DHT22;9654;52.302;8.120;2023-04-15T10:35:27;8.40;99.90
19044;DHT22;9654;52.302;8.120;2023-04-15T10:37:56;8.40;99.90
19044;DHT22;9654;52.302;8.120;2023-04-15T10:40:25;8.40;99.90
19044;DHT22;9654;52.302;8.120;2023-04-15T10:42:53;8.50;99.90
19044;DHT22;9654;52.302;8.120;2023-04-15T10:45:20;8.40;99.90
19044;DHT22;9654;52.302;8.120;2023-04-15T10:47:51;8.40;99.90
19044;DHT22;9654;52.302;8.120;2023-04-15T10:50:19;8.50;99.90
19044;DHT22;9654;52.302;8.120;2023-04-15T10:52:50;8.50;99.90
19044;DHT22;9654;52.302;8.120;2023-04-15T10:55:21;8.50;99.90
19044;DHT22;9654;52.302;8.120;2023-04-15T10:57:51;8.50;99.90
19044;DHT22;9654;52.302;8.120;2023-04-15T11:00:19;8.50;99.90
19044;DHT22;9654;52.302;8.120;2023-04-15T11:02:51;8.50;99.90
19044;DHT22;9654;52.302;8.120;2023-04-15T11:05:19;8.50;99.90
19044;DHT22;9654;52.302;8.120;2023-04-15T11:07:49;8.60;99.90
19044;DHT22;9654;52.302;8.120;2023-04-15T11:10:51;8.60;99.90
19044;DHT22;9654;52.302;8.120;2023-04-15T11:13:23;8.60;99.90
19044;DHT22;9654;52.302;8.120;2023-04-15T11:15:56;8.60;99.90
19044;DHT22;9654;52.302;8.120;2023-04-15T11:18:26;8.50;99.90
19044;DHT22;9654;52.302;8.120;2023-04-15T11:20:56;8.50;99.90
19044;DHT22;9654;52.302;8.120;2023-04-15T11:23:29;8.50;99.90
19044;DHT22;9654;52.302;8.120;2023-04-15T11:25:58;8.50;99.90
19044;DHT22;9654;52.302;8.120;2023-04-15T11:28:26;8.50;99.90
19044;DHT22;9654;52.302;8.120;2023-04-15T11:30:53;8.50;99.90
19044;DHT22;9654;52.302;8.120;2023-04-15T11:33:21;8.50;99.90
19044;DHT22;9654;52.302;8.120;2023-04-15T11:35:49;8.50;99.90
19044;DHT22;9654;52.302;8.120;2023-04-15T11:38:17;8.50;99.90
19044;DHT22;9654;52.302;8.120;2023-04-15T11:40:45;8.50;99.90
19044;DHT22;9654;52.302;8.120;2023-04-15T11:43:14;8.50;99.90
19044;DHT22;9654;52.302;8.120;2023-04-15T11:45:51;8.50;99.90
19044;DHT22;9654;52.302;8.120;2023-04-15T11:48:18;8.50;99.90
19044;DHT22;9654;52.302;8.120;2023-04-15T11:50:50;8.50;99.90
19044;DHT22;9654;52.302;8.120;2023-04-15T11:53:18;8.50;99.90
19044;DHT22;9654;52.302;8.120;2023-04-15T11:55:46;8.50;99.90
19044;DHT22;9654;52.302;8.120;2023-04-15T11:58:16;8.50;99.90
19044;DHT22;9654;52.302;8.120;2023-04-15T12:00:47;8.50;99.90
19044;DHT22;9654;52.302;8.120;2023-04-15T12:03:20;8.50;99.90
19044;DHT22;9654;52.302;8.120;2023-04-15T12:06:11;8.50;99.90
19044;DHT22;9654;52.302;8.120;2023-04-15T12:09:09;8.50;99.90
19044;DHT22;9654;52.302;8.120;2023-04-15T12:11:42;8.50;99.90
19044;DHT22;9654;52.302;8.120;2023-04-15T12:14:12;8.50;99.90
19044;DHT22;9654;52.302;8.120;2023-04-15T12:16:41;8.50;99.90
19044;DHT22;9654;52.302;8.120;2023-04-15T12:19:09;8.40;99.90
19044;DHT22;9654;52.302;8.120;2023-04-15T12:21:38;8.50;99.90
19044;DHT22;9654;52.302;8.120;2023-04-15T12:24:06;8.40;99.90
19044;DHT22;9654;52.302;8.120;2023-04-15T12:26:35;8.40;99.90
19044;DHT22;9654;52.302;8.120;2023-04-15T12:29:03;8.50;99.90
19044;DHT22;9654;52.302;8.120;2023-04-15T12:31:32;8.40;99.90
19044;DHT22;9654;52.302;8.120;2023-04-15T12:34:00;8.40;99.90
19044;DHT22;9654;52.302;8.120;2023-04-15T12:36:27;8.40;99.90
19044;DHT22;9654;52.302;8.120;2023-04-15T12:39:01;8.50;99.90
19044;DHT22;9654;52.302;8.120;2023-04-15T12:41:28;8.50;99.90
19044;DHT22;9654;52.302;8.120;2023-04-15T12:43:55;8.40;99.90
19044;DHT22;9654;52.302;8.120;2023-04-15T12:46:22;8.40;99.90
19044;DHT22;9654;52.302;8.120;2023-04-15T12:48:50;8.40;99.90
19044;DHT22;9654;52.302;8.120;2023-04-15T12:51:18;8.40;99.90
19044;DHT22;9654;52.302;8.120;2023-04-15T12:53:45;8.40;99.90
19044;DHT22;9654;52.302;8.120;2023-04-15T12:56:12;8.40;99.90
19044;DHT22;9654;52.302;8.120;2023-04-15T12:58:39;8.40;99.90
19044;DHT22;9654;52.302;8.120;2023-04-15T13:01:06;8.40;99.90
19044;DHT22;9654;52.302;8.120;2023-04-15T13:03:33;8.40;99.90
19044;DHT22;9654;52.302;8.120;2023-04-15T13:06:01;8.40;99.90
19044;DHT22;9654;52.302;8.120;2023-04-15T13:08:29;8.30;99.90
19044;DHT22;9654;52.302;8.120;2023-04-15T13:10:56;8.40;99.90
19044;DHT22;9654;52.302;8.120;2023-04-15T13:13:22;8.30;99.90
19044;DHT22;9654;52.302;8.120;2023-04-15T13:15:49;8.40;99.90
19044;DHT22;9654;52.302;8.120;2023-04-15T13:18:16;8.40;99.90
19044;DHT22;9654;52.302;8.120;2023-04-15T13:20:43;8.40;99.90
19044;DHT22;9654;52.302;8.120;2023-04-15T13:23:11;8.40;99.90
19044;DHT22;9654;52.302;8.120;2023-04-15T13:25:37;8.40;99.90
19044;DHT22;9654;52.302;8.120;2023-04-15T13:28:04;8.40;99.90
19044;DHT22;9654;52.302;8.120;2023-04-15T13:30:31;8.30;99.90
19044;DHT22;9654;52.302;8.120;2023-04-15T13:32:58;8.40;99.90
19044;DHT22;9654;52.302;8.120;2023-04-15T13:35:25;8.30;99.90
19044;DHT22;9654;52.302;8.120;2023-04-15T13:37:53;8.30;99.90
19044;DHT22;9654;52.302;8.120;2023-04-15T13:40:22;8.40;99.90
19044;DHT22;9654;52.302;8.120;2023-04-15T13:42:49;8.40;99.90
19044;DHT22;9654;52.302;8.120;2023-04-15T13:45:17;8.30;99.90
19044;DHT22;9654;52.302;8.120;2023-04-15T13:47:44;8.30;99.90
19044;DHT22;9654;52.302;8.120;2023-04-15T13:50:11;8.30;99.90
19044;DHT22;9654;52.302;8.120;2023-04-15T13:52:38;8.30;99.90
19044;DHT22;9654;52.302;8.120;2023-04-15T13:55:06;8.40;99.90
19044;DHT22;9654;52.302;8.120;2023-04-15T13:57:34;8.40;99.90
19044;DHT22;9654;52.302;8.120;2023-04-15T14:00:01;8.40;99.90
19044;DHT22;9654;52.302;8.120;2023-04-15T14:02:30;8.40;99.90
19044;DHT22;9654;52.302;8.120;2023-04-15T14:04:56;8.40;99.90
19044;DHT22;9654;52.302;8.120;2023-04-15T14:07:23;8.40;99.90
19044;DHT22;9654;52.302;8.120;2023-04-15T14:09:50;8.40;99.90
19044;DHT22;9654;52.302;8.120;2023-04-15T14:12:17;8.40;99.90
19044;DHT22;9654;52.302;8.120;2023-04-15T14:14:45;8.40;99.90
19044;DHT22;9654;52.302;8.120;2023-04-15T14:17:12;8.40;99.90
19044;DHT22;9654;52.302;8.120;2023-04-15T14:19:38;8.50;99.90
19044;DHT22;9654;52.302;8.120;2023-04-15T14:22:05;8.50;99.90
19044;DHT22;9654;52.302;8.120;2023-04-15T14:24:32;8.50;99.90
19044;DHT22;9654;52.302;8.120;2023-04-15T14:26:59;8.50;99.90
19044;DHT22;9654;52.302;8.120;2023-04-15T14:29:26;8.50;99.90
19044;DHT22;9654;52.302;8.120;2023-04-15T14:31:54;8.50;99.90
19044;DHT22;9654;52.302;8.120;2023-04-15T14:34:23;8.50;99.90
19044;DHT22;9654;52.302;8.120;2023-04-15T14:36:50;8.50;99.90
19044;DHT22;9654;52.302;8.120;2023-04-15T14:39:17;8.60;99.90
19044;DHT22;9654;52.302;8.120;2023-04-15T14:41:44;8.60;99.90
19044;DHT22;9654;52.302;8.120;2023-04-15T14:44:11;8.50;99.90
19044;DHT22;9654;52.302;8.120;2023-04-15T14:46:38;8.50;99.90
19044;DHT22;9654;52.302;8.120;2023-04-15T14:49:06;8.50;99.90
19044;DHT22;9654;52.302;8.120;2023-04-15T14:51:33;8.50;99.90
19044;DHT22;9654;52.302;8.120;2023-04-15T14:54:00;8.50;99.90
19044;DHT22;9654;52.302;8.120;2023-04-15T14:56:27;8.50;99.90
19044;DHT22;9654;52.302;8.120;2023-04-15T14:58:54;8.50;99.90
19044;DHT22;9654;52.302;8.120;2023-04-15T15:01:20;8.50;99.90
19044;DHT22;9654;52.302;8.120;2023-04-15T15:03:48;8.50;99.90
19044;DHT22;9654;52.302;8.120;2023-04-15T15:06:16;8.50;99.90
19044;DHT22;9654;52.302;8.120;2023-04-15T15:08:43;8.50;99.90
19044;DHT22;9654;52.302;8.120;2023-04-15T15:11:10;8.50;99.90
19044;DHT22;9654;52.302;8.120;2023-04-15T15:13:36;8.50;99.90
19044;DHT22;9654;52.302;8.120;2023-04-15T15:16:03;8.60;99.90
19044;DHT22;9654;52.302;8.120;2023-04-15T15:18:30;8.60;99.90
19044;DHT22;9654;52.302;8.120;2023-04-15T15:20:57;8.60;99.90
19044;DHT22;9654;52.302;8.120;2023-04-15T15:23:25;8.60;99.90
19044;DHT22;9654;52.302;8.120;2023-04-15T15:25:52;8.60;99.90
19044;DHT22;9654;52.302;8.120;2023-04-15T15:28:19;8.60;99.90
19044;DHT22;9654;52.302;8.120;2023-04-15T15:30:46;8.60;99.90
19044;DHT22;9654;52.302;8.120;2023-04-15T15:33:13;8.60;99.90
19044;DHT22;9654;52.302;8.120;2023-04-15T15:35:40;8.60;99.90
19044;DHT22;9654;52.302;8.120;2023-04-15T15:38:07;8.60;99.90
19044;DHT22;9654;52.302;8.120;2023-04-15T15:40:35;8.60;99.90
19044;DHT22;9654;52.302;8.120;2023-04-15T15:43:02;8.60;99.90
19044;DHT22;9654;52.302;8.120;2023-04-15T15:45:29;8.60;99.90
19044;DHT22;9654;52.302;8.120;2023-04-15T15:47:56;8.60;99.90
19044;DHT22;9654;52.302;8.120;2023-04-15T15:50:23;8.60;99.90
19044;DHT22;9654;52.302;8.120;2023-04-15T15:52:50;8.60;99.90
19044;DHT22;9654;52.302;8.120;2023-04-15T15:55:17;8.60;99.90
19044;DHT22;9654;52.302;8.120;2023-04-15T15:57:45;8.60;99.90
19044;DHT22;9654;52.302;8.120;2023-04-15T16:00:13;8.60;99.90
19044;DHT22;9654;52.302;8.120;2023-04-15T16:02:40;8.70;99.90
19044;DHT22;9654;52.302;8.120;2023-04-15T16:05:08;8.60;99.90